createdAt,value
2023-03-16T00:00:57.655Z,101455.53
2023-03-16T00:03:25.274Z,101452.16
2023-03-16T00:05:54.946Z,101460.91
2023-03-16T00:08:24.637Z,101453.00
2023-03-16T00:10:54.168Z,101459.47
2023-03-16T00:13:24.698Z,101453.53
2023-03-16T00:15:53.081Z,101454.50
2023-03-16T00:18:21.531Z,101451.28
2023-03-16T00:20:52.727Z,101454.50
2023-03-16T00:23:27.612Z,101454.34
2023-03-16T00:25:58.673Z,101454.19
2023-03-16T00:28:28.483Z,101457.88
2023-03-16T00:30:58.898Z,101458.84
2023-03-16T00:33:26.863Z,101449.41
2023-03-16T00:36:02.083Z,101453.06
2023-03-16T00:38:32.175Z,101457.31
2023-03-16T00:41:03.661Z,101452.47
2023-03-16T00:43:31.565Z,101449.47
2023-03-16T00:46:01.202Z,101450.06
2023-03-16T00:48:28.898Z,101450.59
2023-03-16T00:50:56.564Z,101445.97
2023-03-16T00:53:24.295Z,101445.00
2023-03-16T00:55:53.311Z,101449.16
2023-03-16T00:58:23.288Z,101439.88
2023-03-16T01:00:51.299Z,101438.31
2023-03-16T01:03:19.031Z,101436.91
2023-03-16T01:05:46.731Z,101438.72
2023-03-16T01:08:14.411Z,101441.25
2023-03-16T01:10:42.159Z,101439.13
2023-03-16T01:13:09.813Z,101442.91
2023-03-16T01:15:38.874Z,101437.75
2023-03-16T01:18:07.820Z,101446.44
2023-03-16T01:20:35.551Z,101445.88
2023-03-16T01:23:03.480Z,101442.34
2023-03-16T01:25:32.434Z,101435.28
2023-03-16T01:28:00.250Z,101425.84
2023-03-16T01:30:28.431Z,101433.59
2023-03-16T01:32:58.385Z,101430.47
2023-03-16T01:35:26.037Z,101425.84
2023-03-16T01:37:53.828Z,101430.47
2023-03-16T01:40:22.095Z,101429.75
2023-03-16T01:43:00.438Z,101427.09
2023-03-16T01:46:10.578Z,101423.69
2023-03-16T01:48:44.726Z,101434.66
2023-03-16T01:51:21.088Z,101433.94
2023-03-16T01:53:52.995Z,101430.28
2023-03-16T01:56:25.917Z,101430.56
2023-03-16T01:58:58.986Z,101425.75
2023-03-16T02:01:28.223Z,101426.63
2023-03-16T02:04:06.056Z,101424.66
2023-03-16T02:06:35.257Z,101429.53
2023-03-16T02:09:03.918Z,101422.25
2023-03-16T02:11:32.207Z,101430.56
2023-03-16T02:14:07.338Z,101427.00
2023-03-16T02:16:35.183Z,101423.63
2023-03-16T02:19:07.629Z,101423.75
2023-03-16T02:21:42.741Z,101415.16
2023-03-16T02:24:11.068Z,101411.75
2023-03-16T02:26:47.544Z,101408.47
2023-03-16T02:29:25.564Z,101411.16
2023-03-16T02:31:56.313Z,101408.59
2023-03-16T02:34:24.721Z,101402.94
2023-03-16T02:36:53.880Z,101401.84
2023-03-16T02:39:21.494Z,101397.84
2023-03-16T02:41:49.245Z,101406.84
2023-03-16T02:44:24.066Z,101394.22
2023-03-16T02:46:56.870Z,101395.78
2023-03-16T02:49:28.073Z,101391.91
2023-03-16T02:51:57.451Z,101387.66
2023-03-16T02:54:25.358Z,101387.41
2023-03-16T02:56:53.028Z,101384.63
2023-03-16T02:59:20.699Z,101383.88
2023-03-16T03:01:48.327Z,101375.28
2023-03-16T03:04:17.553Z,101382.31
2023-03-16T03:06:45.574Z,101383.56
2023-03-16T03:09:13.275Z,101379.50
2023-03-16T03:11:41.691Z,101378.81
2023-03-16T03:14:09.318Z,101372.13
2023-03-16T03:16:37.153Z,101376.00
2023-03-16T03:19:04.920Z,101365.16
2023-03-16T03:21:34.182Z,101369.22
2023-03-16T03:24:02.585Z,101375.81
2023-03-16T03:26:30.254Z,101375.22
2023-03-16T03:28:57.886Z,101373.19
2023-03-16T03:31:25.540Z,101372.72
2023-03-16T03:33:53.753Z,101375.53
2023-03-16T03:36:22.146Z,101367.16
2023-03-16T03:38:51.147Z,101392.63
2023-03-16T03:41:18.747Z,101382.13
2023-03-16T03:43:46.600Z,101375.53
2023-03-16T03:46:14.536Z,101381.16
2023-03-16T03:48:42.286Z,101381.34
2023-03-16T03:51:10.350Z,101381.53
2023-03-16T03:53:38.069Z,101376.63
2023-03-16T03:56:07.994Z,101377.38
2023-03-16T03:58:35.652Z,101381.72
2023-03-16T04:01:03.303Z,101380.06
2023-03-16T04:03:31.180Z,101382.97
2023-03-16T04:05:58.887Z,101382.97
2023-03-16T04:08:26.513Z,101385.84
2023-03-16T04:10:54.092Z,101384.16
2023-03-16T04:13:23.059Z,101386.09
2023-03-16T04:15:54.270Z,101382.38
2023-03-16T04:18:22.044Z,101376.78
2023-03-16T04:20:49.800Z,101379.03
2023-03-16T04:23:17.483Z,101380.38
2023-03-16T04:25:45.401Z,101368.81
2023-03-16T04:28:13.264Z,101364.19
2023-03-16T04:30:42.889Z,101371.63
2023-03-16T04:33:10.667Z,101366.47
2023-03-16T04:35:39.503Z,101367.56
2023-03-16T04:38:08.017Z,101370.72
2023-03-16T04:40:35.779Z,101369.91
2023-03-16T04:43:03.421Z,101373.31
2023-03-16T04:45:32.323Z,101360.78
2023-03-16T04:48:01.381Z,101374.03
2023-03-16T04:50:29.185Z,101372.34
2023-03-16T04:52:57.248Z,101371.63
2023-03-16T04:55:24.813Z,101371.44
2023-03-16T04:57:52.961Z,101369.81
2023-03-16T05:00:21.688Z,101374.91
2023-03-16T05:02:50.393Z,101381.94
2023-03-16T05:05:20.234Z,101380.84
2023-03-16T05:07:48.436Z,101379.84
2023-03-16T05:10:18.788Z,101384.63
2023-03-16T05:12:46.649Z,101376.84
2023-03-16T05:15:14.887Z,101376.31
2023-03-16T05:17:43.006Z,101377.75
2023-03-16T05:20:15.847Z,101373.53
2023-03-16T05:22:48.118Z,101375.03
2023-03-16T05:25:17.436Z,101379.03
2023-03-16T05:27:46.667Z,101377.09
2023-03-16T05:30:16.243Z,101376.19
2023-03-16T05:32:44.640Z,101371.69
2023-03-16T05:35:13.612Z,101355.53
2023-03-16T05:37:41.564Z,101357.59
2023-03-16T05:40:16.832Z,101358.00
2023-03-16T05:42:45.897Z,101356.16
2023-03-16T05:45:15.603Z,101355.06
2023-03-16T05:47:43.867Z,101359.09
2023-03-16T05:50:13.032Z,101364.13
2023-03-16T05:52:41.662Z,101359.75
2023-03-16T05:55:12.077Z,101348.44
2023-03-16T05:57:39.788Z,101338.53
2023-03-16T06:00:15.401Z,101336.59
2023-03-16T06:02:43.621Z,101335.66
2023-03-16T06:05:12.037Z,101337.72
2023-03-16T06:07:39.843Z,101333.00
2023-03-16T06:10:08.461Z,101339.66
2023-03-16T06:12:37.390Z,101343.41
2023-03-16T06:15:07.261Z,101343.63
2023-03-16T06:17:35.072Z,101339.59
2023-03-16T06:20:02.808Z,101337.16
2023-03-16T06:22:31.038Z,101335.22
2023-03-16T06:24:58.668Z,101336.94
2023-03-16T06:27:26.519Z,101336.72
2023-03-16T06:29:55.655Z,101342.03
2023-03-16T06:32:23.504Z,101343.78
2023-03-16T06:34:51.351Z,101347.69
2023-03-16T06:37:19.779Z,101338.16
2023-03-16T06:39:47.526Z,101345.06
2023-03-16T06:42:15.514Z,101345.94
2023-03-16T06:44:43.619Z,101352.31
2023-03-16T06:47:12.853Z,101351.53
2023-03-16T06:49:40.773Z,101345.34
2023-03-16T06:52:10.475Z,101362.81
2023-03-16T06:54:38.117Z,101357.13
2023-03-16T06:57:05.908Z,101360.34
2023-03-16T06:59:34.463Z,101366.88
2023-03-16T07:02:02.393Z,101378.47
2023-03-16T07:04:31.665Z,101376.25
2023-03-16T07:06:59.593Z,101370.84
2023-03-16T07:09:28.400Z,101375.16
2023-03-16T07:11:56.010Z,101376.19
2023-03-16T07:14:26.091Z,101382.97
2023-03-16T07:16:53.859Z,101380.69
2023-03-16T07:19:22.503Z,101383.91
2023-03-16T07:21:51.567Z,101383.53
2023-03-16T07:24:19.241Z,101382.69
2023-03-16T07:26:47.286Z,101387.13
2023-03-16T07:29:16.975Z,101385.19
2023-03-16T07:31:44.737Z,101390.00
2023-03-16T07:34:12.642Z,101398.75
2023-03-16T07:36:40.337Z,101398.97
2023-03-16T07:39:09.769Z,101393.91
2023-03-16T07:41:37.441Z,101396.91
2023-03-16T07:44:05.417Z,101403.53
2023-03-16T07:46:35.816Z,101393.53
2023-03-16T07:49:04.665Z,101401.47
2023-03-16T07:51:32.395Z,101400.88
2023-03-16T07:54:00.125Z,101404.00
2023-03-16T07:56:39.039Z,101401.31
2023-03-16T07:59:13.750Z,101404.28
2023-03-16T08:01:41.440Z,101398.78
2023-03-16T08:04:09.160Z,101395.25
2023-03-16T08:06:36.837Z,101393.16
2023-03-16T08:09:05.752Z,101391.63
2023-03-16T08:11:36.182Z,101395.69
2023-03-16T08:14:05.626Z,101393.44
2023-03-16T08:16:33.466Z,101387.63
2023-03-16T08:19:01.277Z,101401.75
2023-03-16T08:21:30.217Z,101398.78
2023-03-16T08:23:57.870Z,101397.53
2023-03-16T08:26:27.281Z,101403.16
2023-03-16T08:28:56.293Z,101387.75
2023-03-16T08:31:25.274Z,101391.28
2023-03-16T08:33:54.050Z,101390.13
2023-03-16T08:36:22.144Z,101384.84
2023-03-16T08:39:06.164Z,101392.91
2023-03-16T08:41:35.203Z,101389.66
2023-03-16T08:44:04.562Z,101388.94
2023-03-16T08:46:32.357Z,101392.19
2023-03-16T08:48:59.963Z,101395.19
2023-03-16T08:51:29.416Z,101388.06
2023-03-16T08:53:57.325Z,101388.22
2023-03-16T08:56:25.024Z,101382.41
2023-03-16T08:58:53.050Z,101380.00
2023-03-16T09:01:22.212Z,101381.06
2023-03-16T09:03:51.288Z,101380.66
2023-03-16T09:06:19.920Z,101376.59
2023-03-16T09:08:47.867Z,101377.00
2023-03-16T09:11:18.675Z,101369.16
2023-03-16T09:13:47.244Z,101371.34
2023-03-16T09:16:16.237Z,101371.97
2023-03-16T09:18:45.523Z,101367.22
2023-03-16T09:21:14.046Z,101369.66
2023-03-16T09:23:42.964Z,101371.19
2023-03-16T09:26:12.718Z,101370.91
2023-03-16T09:28:42.451Z,101363.31
2023-03-16T09:31:11.611Z,101361.91
2023-03-16T09:33:39.936Z,101363.91
2023-03-16T09:36:11.422Z,101367.44
2023-03-16T09:38:39.447Z,101355.75
2023-03-16T09:41:10.605Z,101350.53
2023-03-16T09:43:56.684Z,101358.13
2023-03-16T09:46:29.004Z,101345.19
2023-03-16T09:48:58.005Z,101344.41
2023-03-16T09:51:39.563Z,101339.28
2023-03-16T09:54:18.174Z,101343.34
2023-03-16T09:56:46.902Z,101338.13
2023-03-16T09:59:17.374Z,101342.19
2023-03-16T10:01:59.823Z,101341.56
2023-03-16T10:04:46.262Z,101340.41
2023-03-16T10:07:23.977Z,101341.50
2023-03-16T10:09:57.964Z,101348.44
2023-03-16T10:12:31.935Z,101348.53
2023-03-16T10:15:06.723Z,101343.31
2023-03-16T10:17:41.000Z,101353.56
2023-03-16T10:20:17.410Z,101343.94
2023-03-16T10:22:48.287Z,101338.63
2023-03-16T10:25:23.252Z,101334.69
2023-03-16T10:27:51.638Z,101335.19
2023-03-16T10:30:28.220Z,101332.19
2023-03-16T10:32:57.548Z,101329.47
2023-03-16T10:35:41.580Z,101329.38
2023-03-16T10:38:28.004Z,101337.78
2023-03-16T10:40:57.817Z,101331.59
2023-03-16T10:43:25.871Z,101316.81
2023-03-16T10:46:02.082Z,101322.25
2023-03-16T10:48:34.163Z,101307.75
2023-03-16T10:51:06.417Z,101306.66
2023-03-16T10:53:38.362Z,101312.88
2023-03-16T10:56:13.390Z,101299.22
2023-03-16T10:58:43.646Z,101304.16
2023-03-16T11:01:13.605Z,101297.06
2023-03-16T11:03:42.420Z,101306.22
2023-03-16T11:06:22.793Z,101301.13
2023-03-16T11:08:53.980Z,101296.91
2023-03-16T11:11:27.983Z,101299.47
2023-03-16T11:14:00.092Z,101310.59
2023-03-16T11:16:34.345Z,101296.25
2023-03-16T11:19:11.130Z,101294.44
2023-03-16T11:21:46.453Z,101298.31
2023-03-16T11:24:22.998Z,101299.53
2023-03-16T11:26:55.554Z,101292.09
2023-03-16T11:29:28.372Z,101298.34
2023-03-16T11:31:59.777Z,101295.66
2023-03-16T11:34:30.540Z,101286.22
2023-03-16T11:37:06.283Z,101287.56
2023-03-16T11:39:45.425Z,101280.66
2023-03-16T11:42:28.411Z,101276.13
2023-03-16T11:45:01.630Z,101266.47
2023-03-16T11:48:04.892Z,101257.41
2023-03-16T11:50:38.400Z,101258.75
2023-03-16T11:53:15.913Z,101243.72
2023-03-16T11:55:55.608Z,101240.84
2023-03-16T11:58:37.444Z,101236.47
2023-03-16T12:01:13.206Z,101232.41
2023-03-16T12:03:58.283Z,101235.97
2023-03-16T12:06:39.278Z,101232.75
2023-03-16T12:09:37.657Z,101227.66
2023-03-16T12:12:23.293Z,101223.19
2023-03-16T12:15:00.022Z,101219.94
2023-03-16T12:17:32.159Z,101217.91
2023-03-16T12:20:05.885Z,101211.78
2023-03-16T12:22:37.280Z,101203.31
2023-03-16T12:25:14.712Z,101190.25
2023-03-16T12:27:46.280Z,101190.50
2023-03-16T12:30:25.749Z,101181.69
2023-03-16T12:33:00.679Z,101186.16
2023-03-16T12:35:37.848Z,101182.00
2023-03-16T12:38:37.678Z,101176.06
2023-03-16T12:41:17.930Z,101181.06
2023-03-16T12:43:57.278Z,101171.47
2023-03-16T12:46:32.487Z,101175.13
2023-03-16T12:49:02.969Z,101175.44
2023-03-16T12:51:35.322Z,101168.72
2023-03-16T12:54:04.038Z,101157.72
2023-03-16T12:56:33.433Z,101151.41
2023-03-16T12:59:05.633Z,101147.19
2023-03-16T13:01:39.248Z,101152.03
2023-03-16T13:04:13.462Z,101150.16
2023-03-16T13:06:45.280Z,101142.78
2023-03-16T13:09:18.431Z,101136.78
2023-03-16T13:11:50.897Z,101141.47
2023-03-16T13:14:38.127Z,101135.34
2023-03-16T13:17:22.854Z,101122.03
2023-03-16T13:20:04.022Z,101124.56
2023-03-16T13:22:33.247Z,101121.66
2023-03-16T13:25:15.489Z,101114.94
2023-03-16T13:27:47.111Z,101106.44
2023-03-16T13:30:21.051Z,101115.63
2023-03-16T13:32:49.674Z,101107.13
2023-03-16T13:35:18.937Z,101107.03
2023-03-16T13:37:48.146Z,101104.63
2023-03-16T13:40:20.101Z,101104.09
2023-03-16T13:42:52.709Z,101097.06
2023-03-16T13:45:24.128Z,101094.75
2023-03-16T13:47:53.249Z,101089.13
2023-03-16T13:50:23.554Z,101094.94
2023-03-16T13:52:58.639Z,101094.94
2023-03-16T13:55:32.229Z,101081.50
2023-03-16T13:58:01.687Z,101071.97
2023-03-16T14:00:34.575Z,101075.25
2023-03-16T14:03:16.223Z,101068.31
2023-03-16T14:05:46.276Z,101055.09
2023-03-16T14:08:17.438Z,101055.59
2023-03-16T14:10:46.757Z,101056.91
2023-03-16T14:13:27.518Z,101047.59
2023-03-16T14:15:59.123Z,101058.59
2023-03-16T14:18:33.616Z,101055.22
2023-03-16T14:21:06.436Z,101048.91
2023-03-16T14:23:39.023Z,101047.75
2023-03-16T14:26:12.550Z,101042.13
2023-03-16T14:28:41.517Z,101043.53
2023-03-16T14:31:13.841Z,101040.06
2023-03-16T14:33:45.953Z,101039.31
2023-03-16T14:36:15.382Z,101033.31
2023-03-16T14:38:45.293Z,101026.97
2023-03-16T14:41:21.579Z,101022.38
2023-03-16T14:43:51.656Z,101020.50
2023-03-16T14:46:28.716Z,101022.47
2023-03-16T14:49:05.182Z,101009.03
2023-03-16T14:51:33.763Z,100999.94
2023-03-16T14:54:01.604Z,100997.38
2023-03-16T14:56:34.850Z,101001.56
2023-03-16T14:59:02.726Z,100999.66
2023-03-16T15:01:32.316Z,101005.41
2023-03-16T15:03:59.977Z,100994.25
2023-03-16T15:06:27.666Z,100989.75
2023-03-16T15:08:55.421Z,100996.66
2023-03-16T15:11:24.533Z,100988.06
2023-03-16T15:14:04.206Z,100981.53
2023-03-16T15:16:34.357Z,100979.06
2023-03-16T15:19:02.094Z,100976.91
2023-03-16T15:21:32.817Z,100968.09
2023-03-16T15:24:00.930Z,100976.00
2023-03-16T15:26:30.574Z,100981.31
2023-03-16T15:28:58.532Z,100977.75
2023-03-16T15:31:26.906Z,100970.94
2023-03-16T15:33:56.071Z,100967.97
2023-03-16T15:36:26.632Z,100951.03
2023-03-16T15:38:55.536Z,100939.88
2023-03-16T15:41:24.937Z,100940.50
2023-03-16T15:44:00.496Z,100951.41
2023-03-16T15:46:28.868Z,100952.97
2023-03-16T15:48:57.834Z,100948.94
2023-03-16T15:51:29.869Z,100940.31
2023-03-16T15:54:00.055Z,100936.78
2023-03-16T15:56:30.893Z,100948.41
2023-03-16T15:59:02.028Z,100937.00
2023-03-16T16:01:32.010Z,100928.06
2023-03-16T16:04:01.190Z,100929.56
2023-03-16T16:06:30.333Z,100915.41
2023-03-16T16:08:58.036Z,100921.19
2023-03-16T16:11:27.982Z,100919.78
2023-03-16T16:13:57.447Z,100906.19
2023-03-16T16:16:29.151Z,100898.72
2023-03-16T16:18:57.968Z,100901.25
2023-03-16T16:21:30.855Z,100905.31
2023-03-16T16:23:59.186Z,100907.38
2023-03-16T16:26:45.491Z,100898.09
2023-03-16T16:29:16.769Z,100908.50
2023-03-16T16:31:45.787Z,100910.00
2023-03-16T16:34:14.524Z,100912.06
2023-03-16T16:36:44.740Z,100912.78
2023-03-16T16:39:12.713Z,100904.69
2023-03-16T16:41:41.763Z,100904.88
2023-03-16T16:44:18.012Z,100902.34
2023-03-16T16:46:45.887Z,100895.75
2023-03-16T16:49:17.350Z,100906.13
2023-03-16T16:51:46.813Z,100894.28
2023-03-16T16:54:17.530Z,100895.69
2023-03-16T16:56:46.385Z,100899.38
2023-03-16T16:59:18.070Z,100894.38
2023-03-16T17:01:47.246Z,100882.56
2023-03-16T17:04:17.465Z,100881.44
2023-03-16T17:06:48.763Z,100883.94
2023-03-16T17:09:16.361Z,100882.56
2023-03-16T17:11:46.314Z,100885.31
2023-03-16T17:14:17.942Z,100877.38
2023-03-16T17:16:46.995Z,100878.34
2023-03-16T17:19:19.641Z,100866.44
2023-03-16T17:21:49.036Z,100857.38
2023-03-16T17:24:17.335Z,100857.38
2023-03-16T17:26:47.634Z,100855.78
2023-03-16T17:29:21.004Z,100851.97
2023-03-16T17:31:50.161Z,100853.66
2023-03-16T17:34:20.370Z,100862.13
2023-03-16T17:36:51.120Z,100860.63
2023-03-16T17:39:23.762Z,100856.78
2023-03-16T17:41:55.617Z,100863.19
2023-03-16T17:44:23.513Z,100869.44
2023-03-16T17:46:51.265Z,100874.66
2023-03-16T17:49:19.953Z,100878.19
2023-03-16T17:51:49.015Z,100873.94
2023-03-16T17:54:16.822Z,100873.28
2023-03-16T17:56:44.978Z,100874.09
2023-03-16T17:59:17.404Z,100872.25
2023-03-16T18:01:46.954Z,100868.91
2023-03-16T18:04:17.894Z,100864.88
2023-03-16T18:06:47.515Z,100862.84
2023-03-16T18:09:17.115Z,100865.75
2023-03-16T18:11:47.931Z,100859.31
2023-03-16T18:14:35.700Z,100865.06
2023-03-16T18:17:17.981Z,100853.13
2023-03-16T18:19:46.885Z,100857.53
2023-03-16T18:22:19.279Z,100855.03
2023-03-16T18:24:49.638Z,100852.16
2023-03-16T18:27:17.971Z,100859.72
2023-03-16T18:29:46.898Z,100863.25
2023-03-16T18:32:19.049Z,100853.34
2023-03-16T18:34:47.372Z,100858.75
2023-03-16T18:37:20.972Z,100851.25
2023-03-16T18:39:51.716Z,100845.69
2023-03-16T18:42:21.748Z,100847.19
2023-03-16T18:44:49.728Z,100839.63
2023-03-16T18:47:20.960Z,100839.09
2023-03-16T18:49:53.664Z,100834.41
2023-03-16T18:52:24.457Z,100832.72
2023-03-16T18:54:55.533Z,100833.41
2023-03-16T18:57:25.463Z,100832.25
2023-03-16T18:59:53.990Z,100831.03
2023-03-16T19:02:37.748Z,100835.78
2023-03-16T19:05:09.891Z,100833.59
2023-03-16T19:07:39.802Z,100824.50
2023-03-16T19:10:21.406Z,100831.75
2023-03-16T19:12:49.399Z,100833.78
2023-03-16T19:15:22.895Z,100833.44
2023-03-16T19:17:51.392Z,100835.16
2023-03-16T19:20:21.350Z,100819.53
2023-03-16T19:22:51.925Z,100829.63
2023-03-16T19:25:27.230Z,100832.63
2023-03-16T19:27:55.684Z,100841.91
2023-03-16T19:30:29.149Z,100837.22
2023-03-16T19:32:58.900Z,100826.78
2023-03-16T19:35:48.412Z,100829.63
2023-03-16T19:38:18.140Z,100828.81
2023-03-16T19:40:52.856Z,100832.50
2023-03-16T19:43:22.213Z,100834.19
2023-03-16T19:45:50.814Z,100840.59
2023-03-16T19:48:22.523Z,100831.00
2023-03-16T19:50:52.820Z,100821.22
2023-03-16T19:53:24.363Z,100814.47
2023-03-16T19:55:54.529Z,100817.69
2023-03-16T19:58:30.203Z,100811.81
2023-03-16T20:00:58.799Z,100804.22
2023-03-16T20:03:27.468Z,100809.94
2023-03-16T20:05:55.658Z,100803.06
2023-03-16T20:08:25.683Z,100794.16
2023-03-16T20:10:57.486Z,100796.00
2023-03-16T20:13:26.213Z,100792.97
2023-03-16T20:15:54.255Z,100786.69
2023-03-16T20:18:24.708Z,100782.94
2023-03-16T20:20:53.045Z,100783.41
2023-03-16T20:23:24.448Z,100783.38
2023-03-16T20:25:54.389Z,100774.25
2023-03-16T20:28:26.019Z,100773.41
2023-03-16T20:30:54.959Z,100768.00
2023-03-16T20:33:24.256Z,100758.31
2023-03-16T20:35:54.730Z,100765.06
2023-03-16T20:38:23.810Z,100758.88
2023-03-16T20:40:56.582Z,100739.56
2023-03-16T20:43:29.366Z,100753.03
2023-03-16T20:46:00.032Z,100745.97
2023-03-16T20:48:29.186Z,100757.75
2023-03-16T20:50:59.902Z,100757.69
2023-03-16T20:53:30.785Z,100755.31
2023-03-16T20:55:59.010Z,100754.97
2023-03-16T20:58:28.834Z,100753.66
2023-03-16T21:00:58.212Z,100743.50
2023-03-16T21:03:28.446Z,100753.22
2023-03-16T21:06:00.013Z,100744.75
2023-03-16T21:08:28.497Z,100748.28
2023-03-16T21:10:59.484Z,100744.22
2023-03-16T21:13:31.288Z,100731.09
2023-03-16T21:16:01.396Z,100730.75
2023-03-16T21:18:31.330Z,100733.84
2023-03-16T21:20:59.042Z,100730.31
2023-03-16T21:23:26.789Z,100727.47
2023-03-16T21:25:56.775Z,100727.03
2023-03-16T21:28:26.321Z,100720.78
2023-03-16T21:30:57.344Z,100719.63
2023-03-16T21:33:30.052Z,100717.63
2023-03-16T21:35:58.515Z,100705.50
2023-03-16T21:38:29.115Z,100696.59
2023-03-16T21:40:57.151Z,100696.09
2023-03-16T21:43:25.287Z,100700.84
2023-03-16T21:45:54.000Z,100689.38
2023-03-16T21:48:26.605Z,100680.28
2023-03-16T21:50:54.852Z,100673.72
2023-03-16T21:53:24.274Z,100672.72
2023-03-16T21:55:53.322Z,100664.00
2023-03-16T21:58:22.169Z,100660.31
2023-03-16T22:00:51.041Z,100653.88
2023-03-16T22:03:25.904Z,100652.22
2023-03-16T22:05:54.175Z,100651.56
2023-03-16T22:08:24.238Z,100651.91
2023-03-16T22:10:52.984Z,100653.09
2023-03-16T22:13:22.273Z,100646.88
2023-03-16T22:15:52.749Z,100642.69
2023-03-16T22:18:31.705Z,100623.53
2023-03-16T22:21:00.800Z,100624.00
2023-03-16T22:23:31.929Z,100626.56
2023-03-16T22:25:59.703Z,100613.78
2023-03-16T22:28:27.985Z,100625.03
2023-03-16T22:30:58.413Z,100624.69
2023-03-16T22:33:39.937Z,100627.00
2023-03-16T22:36:11.735Z,100626.38
2023-03-16T22:38:42.243Z,100614.09
2023-03-16T22:41:14.679Z,100614.91
2023-03-16T22:43:45.732Z,100615.78
2023-03-16T22:46:20.609Z,100611.09
2023-03-16T22:48:50.081Z,100604.56
2023-03-16T22:51:24.074Z,100590.75
2023-03-16T22:53:54.016Z,100591.22
2023-03-16T22:56:21.712Z,100581.66
2023-03-16T22:58:52.256Z,100575.09
2023-03-16T23:01:22.993Z,100570.53
2023-03-16T23:03:56.456Z,100573.75
2023-03-16T23:06:26.500Z,100574.59
2023-03-16T23:08:55.285Z,100572.09
2023-03-16T23:11:25.050Z,100574.59
2023-03-16T23:13:54.089Z,100563.47
2023-03-16T23:16:23.871Z,100570.22
2023-03-16T23:18:53.225Z,100569.38
2023-03-16T23:21:23.552Z,100568.84
2023-03-16T23:24:03.229Z,100559.44
2023-03-16T23:26:32.753Z,100559.25
2023-03-16T23:29:00.633Z,100565.84
2023-03-16T23:31:28.549Z,100564.19
2023-03-16T23:33:57.501Z,100565.50
2023-03-16T23:36:27.116Z,100568.66
2023-03-16T23:38:54.800Z,100574.53
2023-03-16T23:41:25.215Z,100565.13
2023-03-16T23:43:54.808Z,100565.13
2023-03-16T23:46:24.625Z,100548.31
2023-03-16T23:48:55.152Z,100560.13
2023-03-16T23:51:27.202Z,100552.34
2023-03-16T23:53:55.013Z,100547.97
2023-03-16T23:56:23.056Z,100548.31
2023-03-16T23:58:50.920Z,100563.47
